ORB249 USMM-UACC
Flight info
| Callsign | ORB249 |
|---|---|
| Flight time | 2h 5m |
| Altitude | 39000 |
| Route | DIGLU2M DIGLU N990 ML/K0876F380 N990 DAKIN/K0882F390 M75 AMOLA/K0885F400 M75 OLGAS |
| Aircraft | B77W/H-SDE1E2E3FGHIJ2J3J4J5M1RWXY/LB1D1 |
Departure
| Time | 2026-04-30 17:49 |
|---|---|
| Airport | Nadym Airport (USMM) |
Arrival
| Time | 2026-04-30 19:55 |
|---|---|
| Airport | Nursultan Nazarbayev International Airport (UACC) |
| Time | Latitude | Longitude | Altitude | Speed | Heading |
|---|---|---|---|---|---|
| 2026-04-30 17:44 | 65.48117 | 72.69542 | 63 ft | 0 kts | 74° |
| 2026-04-30 17:47 | 65.48229 | 72.69844 | 63 ft | 21 kts | 348° |
| 2026-04-30 17:48 | 65.49163 | 72.68893 | 63 ft | 16 kts | 336° |
| 2026-04-30 17:48 | 65.49238 | 72.68824 | 63 ft | 0 kts | 159° |
| 2026-04-30 17:49 | 65.46493 | 72.71536 | 1264 ft | 203 kts | 165° |
| 2026-04-30 17:50 | 65.40678 | 72.70952 | 4670 ft | 249 kts | 183° |
| 2026-04-30 17:51 | 65.35352 | 72.71948 | 7856 ft | 266 kts | 179° |
| 2026-04-30 17:52 | 65.29755 | 72.73138 | 10755 ft | 286 kts | 179° |
| 2026-04-30 17:53 | 65.18559 | 72.75494 | 14223 ft | 363 kts | 179° |
| 2026-04-30 17:54 | 65.08078 | 72.77693 | 17940 ft | 391 kts | 180° |
| 2026-04-30 17:55 | 64.97086 | 72.79977 | 21683 ft | 408 kts | 182° |
| 2026-04-30 17:56 | 64.85571 | 72.82209 | 24996 ft | 423 kts | 184° |
| 2026-04-30 17:57 | 64.76633 | 72.83915 | 26826 ft | 443 kts | 184° |
| 2026-04-30 17:58 | 64.67297 | 72.85697 | 28584 ft | 459 kts | 184° |
| 2026-04-30 17:59 | 64.54433 | 72.88142 | 30924 ft | 468 kts | 184° |
| 2026-04-30 18:00 | 64.41485 | 72.90576 | 32935 ft | 470 kts | 183° |
| 2026-04-30 18:00 | 64.31646 | 72.92409 | 34461 ft | 471 kts | 182° |
| 2026-04-30 18:01 | 64.25156 | 72.93609 | 35375 ft | 473 kts | 181° |
| 2026-04-30 18:02 | 64.15358 | 72.95412 | 36674 ft | 474 kts | 181° |
| 2026-04-30 18:02 | 64.05371 | 72.97234 | 37101 ft | 477 kts | 181° |
| 2026-04-30 18:04 | 63.85703 | 73.00792 | 37125 ft | 473 kts | 181° |
| 2026-04-30 18:06 | 63.59500 | 73.05455 | 37138 ft | 471 kts | 181° |
| 2026-04-30 18:08 | 63.36636 | 73.09603 | 37107 ft | 471 kts | 181° |
| 2026-04-30 18:10 | 63.10645 | 73.14311 | 37120 ft | 469 kts | 181° |
| 2026-04-30 18:11 | 62.87877 | 73.18365 | 37146 ft | 468 kts | 182° |
| 2026-04-30 18:13 | 62.71703 | 73.21203 | 37139 ft | 468 kts | 182° |
| 2026-04-30 18:14 | 62.55452 | 73.24027 | 37145 ft | 467 kts | 182° |
| 2026-04-30 18:15 | 62.35875 | 73.27374 | 37173 ft | 488 kts | 182° |
| 2026-04-30 18:16 | 62.22205 | 73.29700 | 37159 ft | 495 kts | 182° |
| 2026-04-30 18:17 | 62.15292 | 73.30868 | 37164 ft | 495 kts | 182° |
| 2026-04-30 18:18 | 62.05070 | 73.32585 | 37146 ft | 494 kts | 182° |
| 2026-04-30 18:18 | 61.98212 | 73.33727 | 37162 ft | 496 kts | 183° |
| 2026-04-30 18:19 | 61.91354 | 73.34553 | 37174 ft | 491 kts | 185° |
| 2026-04-30 18:19 | 61.84560 | 73.35210 | 37177 ft | 492 kts | 185° |
| 2026-04-30 18:20 | 61.77728 | 73.35883 | 37175 ft | 492 kts | 185° |
| 2026-04-30 18:20 | 61.70906 | 73.36564 | 37202 ft | 491 kts | 185° |
| 2026-04-30 18:21 | 61.64137 | 73.37242 | 37200 ft | 488 kts | 185° |
| 2026-04-30 18:21 | 61.57348 | 73.37917 | 37191 ft | 490 kts | 185° |
| 2026-04-30 18:22 | 61.50583 | 73.38593 | 37196 ft | 487 kts | 185° |
| 2026-04-30 18:22 | 61.40381 | 73.39604 | 37203 ft | 488 kts | 185° |
| 2026-04-30 18:23 | 61.33575 | 73.40276 | 37202 ft | 492 kts | 185° |
| 2026-04-30 18:23 | 61.26767 | 73.41113 | 37200 ft | 491 kts | 184° |
| 2026-04-30 18:24 | 61.16602 | 73.42384 | 37207 ft | 492 kts | 184° |
| 2026-04-30 18:25 | 61.09785 | 73.43227 | 37213 ft | 489 kts | 185° |
| 2026-04-30 18:25 | 60.99659 | 73.44471 | 37207 ft | 489 kts | 184° |
| 2026-04-30 18:26 | 60.89476 | 73.45715 | 37211 ft | 486 kts | 185° |
| 2026-04-30 18:27 | 60.79345 | 73.46940 | 37214 ft | 487 kts | 184° |
| 2026-04-30 18:28 | 60.69249 | 73.48158 | 37207 ft | 483 kts | 185° |
| 2026-04-30 18:28 | 60.59101 | 73.49367 | 37210 ft | 485 kts | 185° |
| 2026-04-30 18:29 | 60.45710 | 73.50960 | 37204 ft | 480 kts | 185° |
| 2026-04-30 18:30 | 60.32329 | 73.52531 | 37209 ft | 483 kts | 185° |
| 2026-04-30 18:31 | 60.22338 | 73.53699 | 37211 ft | 483 kts | 185° |
| 2026-04-30 18:32 | 60.12304 | 73.54868 | 37202 ft | 478 kts | 185° |
| 2026-04-30 18:33 | 60.02317 | 73.56017 | 37209 ft | 480 kts | 185° |
| 2026-04-30 18:33 | 59.92365 | 73.57159 | 37198 ft | 480 kts | 185° |
| 2026-04-30 18:34 | 59.82384 | 73.58298 | 37214 ft | 478 kts | 185° |
| 2026-04-30 18:35 | 59.75771 | 73.59048 | 37200 ft | 478 kts | 185° |
| 2026-04-30 18:35 | 59.69175 | 73.59792 | 37202 ft | 481 kts | 185° |
| 2026-04-30 18:36 | 59.59188 | 73.60916 | 37199 ft | 479 kts | 184° |
| 2026-04-30 18:37 | 59.49278 | 73.62026 | 37200 ft | 479 kts | 184° |
| 2026-04-30 18:37 | 59.42598 | 73.62767 | 37205 ft | 479 kts | 184° |
| 2026-04-30 18:38 | 59.35964 | 73.63500 | 37209 ft | 482 kts | 184° |
| 2026-04-30 18:38 | 59.29310 | 73.64237 | 37202 ft | 480 kts | 184° |
| 2026-04-30 18:39 | 59.22615 | 73.64973 | 37199 ft | 480 kts | 184° |
| 2026-04-30 18:39 | 59.15985 | 73.65700 | 37198 ft | 480 kts | 185° |
| 2026-04-30 18:40 | 59.09389 | 73.66419 | 37193 ft | 479 kts | 185° |
| 2026-04-30 18:40 | 59.02732 | 73.67142 | 37192 ft | 480 kts | 185° |
| 2026-04-30 18:41 | 58.96104 | 73.67860 | 37195 ft | 478 kts | 185° |
| 2026-04-30 18:41 | 58.89482 | 73.68574 | 37192 ft | 479 kts | 185° |
| 2026-04-30 18:42 | 58.82851 | 73.69285 | 37215 ft | 478 kts | 185° |
| 2026-04-30 18:42 | 58.72876 | 73.70342 | 37176 ft | 479 kts | 185° |
| 2026-04-30 18:45 | 58.36478 | 73.74152 | 37160 ft | 478 kts | 185° |
| 2026-04-30 18:46 | 58.29862 | 73.74835 | 37161 ft | 479 kts | 185° |
| 2026-04-30 18:46 | 58.23260 | 73.75517 | 37164 ft | 477 kts | 185° |
| 2026-04-30 18:47 | 58.16605 | 73.76198 | 37160 ft | 479 kts | 185° |
| 2026-04-30 18:47 | 58.09972 | 73.76877 | 37157 ft | 479 kts | 184° |
| 2026-04-30 18:48 | 58.03348 | 73.77552 | 37156 ft | 478 kts | 185° |
| 2026-04-30 18:48 | 57.96752 | 73.78220 | 37153 ft | 480 kts | 184° |
| 2026-04-30 18:49 | 57.90094 | 73.78894 | 37154 ft | 479 kts | 184° |
| 2026-04-30 18:49 | 57.83455 | 73.79563 | 37157 ft | 479 kts | 184° |
| 2026-04-30 18:50 | 57.76801 | 73.80231 | 37151 ft | 480 kts | 184° |
| 2026-04-30 18:50 | 57.70168 | 73.80813 | 37147 ft | 479 kts | 185° |
| 2026-04-30 18:51 | 57.63577 | 73.81371 | 37142 ft | 478 kts | 185° |
| 2026-04-30 18:51 | 57.56898 | 73.81934 | 37142 ft | 480 kts | 184° |
| 2026-04-30 18:52 | 57.50254 | 73.82497 | 37139 ft | 479 kts | 184° |
| 2026-04-30 18:52 | 57.43605 | 73.83058 | 37136 ft | 479 kts | 185° |
| 2026-04-30 18:53 | 57.36946 | 73.83618 | 37136 ft | 481 kts | 184° |
| 2026-04-30 18:53 | 57.30320 | 73.84174 | 37129 ft | 480 kts | 184° |
| 2026-04-30 18:54 | 57.23679 | 73.84729 | 37121 ft | 480 kts | 184° |
| 2026-04-30 18:54 | 57.17014 | 73.85284 | 37114 ft | 482 kts | 184° |
| 2026-04-30 18:55 | 57.10358 | 73.85838 | 37117 ft | 481 kts | 184° |
| 2026-04-30 18:55 | 57.00396 | 73.86661 | 37115 ft | 480 kts | 184° |
| 2026-04-30 18:56 | 56.90369 | 73.87485 | 37104 ft | 482 kts | 184° |
| 2026-04-30 18:57 | 56.80331 | 73.88306 | 37106 ft | 481 kts | 184° |
| 2026-04-30 18:57 | 56.73619 | 73.88852 | 37104 ft | 483 kts | 184° |
| 2026-04-30 18:58 | 56.63580 | 73.89666 | 37097 ft | 483 kts | 184° |
| 2026-04-30 18:59 | 56.53514 | 73.90478 | 37094 ft | 483 kts | 184° |
| 2026-04-30 19:00 | 56.40052 | 73.91556 | 37086 ft | 484 kts | 184° |
| 2026-04-30 19:01 | 56.26635 | 73.92623 | 37085 ft | 486 kts | 184° |
| 2026-04-30 19:02 | 56.16824 | 73.90335 | 37080 ft | 472 kts | 199° |
| 2026-04-30 19:03 | 56.04107 | 73.84565 | 37064 ft | 472 kts | 199° |
| 2026-04-30 19:04 | 55.91395 | 73.78841 | 37067 ft | 473 kts | 199° |
| 2026-04-30 19:05 | 55.78624 | 73.73132 | 37062 ft | 473 kts | 199° |
| 2026-04-30 19:06 | 55.65881 | 73.67475 | 37057 ft | 472 kts | 199° |
| 2026-04-30 19:06 | 55.56342 | 73.63058 | 37061 ft | 472 kts | 202° |
| 2026-04-30 19:07 | 55.46924 | 73.57989 | 37057 ft | 473 kts | 202° |
| 2026-04-30 19:08 | 55.34345 | 73.51313 | 37056 ft | 473 kts | 202° |
| 2026-04-30 19:09 | 55.24941 | 73.46165 | 37049 ft | 473 kts | 202° |
| 2026-04-30 19:09 | 55.18617 | 73.42722 | 37049 ft | 473 kts | 202° |
| 2026-04-30 19:10 | 55.06055 | 73.35923 | 37050 ft | 473 kts | 201° |
| 2026-04-30 19:11 | 54.96708 | 73.30488 | 37051 ft | 469 kts | 209° |
| 2026-04-30 19:12 | 54.91194 | 73.24631 | 37051 ft | 465 kts | 216° |
| 2026-04-30 19:12 | 54.85821 | 73.18503 | 37046 ft | 465 kts | 216° |
| 2026-04-30 19:13 | 54.75026 | 73.06260 | 37022 ft | 465 kts | 216° |
| 2026-04-30 19:14 | 54.69646 | 73.00191 | 37022 ft | 464 kts | 216° |
| 2026-04-30 19:14 | 54.64232 | 72.94103 | 37011 ft | 466 kts | 216° |
| 2026-04-30 19:15 | 54.58784 | 72.87998 | 37015 ft | 466 kts | 216° |
| 2026-04-30 19:15 | 54.50625 | 72.78882 | 37012 ft | 467 kts | 216° |
| 2026-04-30 19:16 | 54.45206 | 72.72852 | 37008 ft | 466 kts | 216° |
| 2026-04-30 19:17 | 54.37089 | 72.63856 | 37001 ft | 466 kts | 216° |
| 2026-04-30 19:17 | 54.28912 | 72.54836 | 36995 ft | 467 kts | 216° |
| 2026-04-30 19:18 | 54.20758 | 72.45885 | 36988 ft | 466 kts | 215° |
| 2026-04-30 19:19 | 54.15041 | 72.40708 | 36975 ft | 471 kts | 202° |
| 2026-04-30 19:19 | 54.05393 | 72.37054 | 36976 ft | 477 kts | 195° |
| 2026-04-30 19:20 | 53.98861 | 72.34905 | 36969 ft | 476 kts | 194° |
| 2026-04-30 19:21 | 53.89121 | 72.31712 | 36965 ft | 475 kts | 194° |
| 2026-04-30 19:22 | 53.76163 | 72.27489 | 36968 ft | 476 kts | 194° |
| 2026-04-30 19:23 | 53.56768 | 72.21287 | 36954 ft | 458 kts | 193° |
| 2026-04-30 19:24 | 53.50711 | 72.19422 | 36372 ft | 439 kts | 193° |
| 2026-04-30 19:24 | 53.47714 | 72.18497 | 35624 ft | 442 kts | 193° |
| 2026-04-30 19:24 | 53.41587 | 72.16606 | 33641 ft | 455 kts | 193° |
| 2026-04-30 19:25 | 53.32251 | 72.13741 | 30878 ft | 460 kts | 192° |
| 2026-04-30 19:26 | 53.25971 | 72.11822 | 29483 ft | 453 kts | 193° |
| 2026-04-30 19:26 | 53.19901 | 72.09973 | 28491 ft | 441 kts | 192° |
| 2026-04-30 19:26 | 53.16897 | 72.09060 | 27866 ft | 437 kts | 192° |
| 2026-04-30 19:27 | 53.10964 | 72.07259 | 26638 ft | 430 kts | 192° |
| 2026-04-30 19:27 | 53.05162 | 72.05502 | 25507 ft | 421 kts | 192° |
| 2026-04-30 19:28 | 53.02323 | 72.04644 | 24930 ft | 418 kts | 192° |
| 2026-04-30 19:28 | 52.96659 | 72.02939 | 23706 ft | 411 kts | 192° |
| 2026-04-30 19:29 | 52.91112 | 72.01276 | 22525 ft | 405 kts | 192° |
| 2026-04-30 19:29 | 52.88353 | 72.00450 | 21981 ft | 400 kts | 192° |
| 2026-04-30 19:30 | 52.80263 | 71.98035 | 20278 ft | 391 kts | 192° |
| 2026-04-30 19:30 | 52.74963 | 71.96458 | 19153 ft | 385 kts | 192° |
| 2026-04-30 19:31 | 52.69743 | 71.94907 | 18093 ft | 378 kts | 191° |
| 2026-04-30 19:31 | 52.67200 | 71.94154 | 17558 ft | 375 kts | 191° |
| 2026-04-30 19:31 | 52.62146 | 71.92600 | 16495 ft | 368 kts | 192° |
| 2026-04-30 19:32 | 52.59631 | 71.91765 | 15938 ft | 366 kts | 192° |
| 2026-04-30 19:32 | 52.57164 | 71.90949 | 15392 ft | 364 kts | 192° |
| 2026-04-30 19:32 | 52.54675 | 71.90127 | 14851 ft | 361 kts | 192° |
| 2026-04-30 19:32 | 52.52223 | 71.89321 | 14343 ft | 358 kts | 192° |
| 2026-04-30 19:33 | 52.49810 | 71.88531 | 13867 ft | 355 kts | 192° |
| 2026-04-30 19:33 | 52.47423 | 71.87750 | 13380 ft | 351 kts | 192° |
| 2026-04-30 19:33 | 52.45046 | 71.86974 | 12839 ft | 350 kts | 192° |
| 2026-04-30 19:33 | 52.42653 | 71.86194 | 12293 ft | 348 kts | 192° |
| 2026-04-30 19:34 | 52.40311 | 71.85432 | 12028 ft | 343 kts | 192° |
| 2026-04-30 19:34 | 52.37981 | 71.84674 | 11996 ft | 346 kts | 192° |
| 2026-04-30 19:34 | 52.33249 | 71.83137 | 12004 ft | 347 kts | 192° |
| 2026-04-30 19:35 | 52.30871 | 71.82367 | 11990 ft | 346 kts | 192° |
| 2026-04-30 19:35 | 52.28508 | 71.81602 | 11994 ft | 347 kts | 191° |
| 2026-04-30 19:35 | 52.26150 | 71.80840 | 12003 ft | 347 kts | 191° |
| 2026-04-30 19:35 | 52.23799 | 71.80080 | 12004 ft | 347 kts | 191° |
| 2026-04-30 19:36 | 52.21435 | 71.79318 | 11994 ft | 347 kts | 191° |
| 2026-04-30 19:36 | 52.19076 | 71.78558 | 11996 ft | 348 kts | 192° |
| 2026-04-30 19:36 | 52.14320 | 71.77027 | 11994 ft | 347 kts | 192° |
| 2026-04-30 19:37 | 52.11975 | 71.76274 | 11993 ft | 347 kts | 192° |
| 2026-04-30 19:37 | 52.09604 | 71.75513 | 11993 ft | 348 kts | 191° |
| 2026-04-30 19:37 | 52.07216 | 71.75030 | 11976 ft | 349 kts | 185° |
| 2026-04-30 19:37 | 52.04780 | 71.74750 | 11793 ft | 347 kts | 185° |
| 2026-04-30 19:38 | 52.02388 | 71.74490 | 11623 ft | 346 kts | 185° |
| 2026-04-30 19:38 | 52.00010 | 71.74229 | 11476 ft | 345 kts | 185° |
| 2026-04-30 19:38 | 51.97604 | 71.73963 | 11332 ft | 344 kts | 185° |
| 2026-04-30 19:38 | 51.95231 | 71.73701 | 11187 ft | 343 kts | 185° |
| 2026-04-30 19:39 | 51.92861 | 71.73438 | 11041 ft | 343 kts | 185° |
| 2026-04-30 19:39 | 51.90469 | 71.73172 | 10900 ft | 343 kts | 184° |
| 2026-04-30 19:39 | 51.88090 | 71.72909 | 10761 ft | 341 kts | 185° |
| 2026-04-30 19:39 | 51.85757 | 71.72650 | 10618 ft | 334 kts | 185° |
| 2026-04-30 19:40 | 51.83475 | 71.72398 | 10481 ft | 320 kts | 185° |
| 2026-04-30 19:40 | 51.81305 | 71.72158 | 10353 ft | 308 kts | 185° |
| 2026-04-30 19:40 | 51.79198 | 71.71925 | 10230 ft | 297 kts | 185° |
| 2026-04-30 19:40 | 51.77181 | 71.71703 | 10107 ft | 287 kts | 185° |
| 2026-04-30 19:41 | 51.75241 | 71.71489 | 9991 ft | 277 kts | 185° |
| 2026-04-30 19:41 | 51.73338 | 71.71278 | 9871 ft | 268 kts | 185° |
| 2026-04-30 19:41 | 51.71508 | 71.71077 | 9755 ft | 262 kts | 185° |
| 2026-04-30 19:41 | 51.69712 | 71.70879 | 9644 ft | 261 kts | 185° |
| 2026-04-30 19:42 | 51.67890 | 71.70679 | 9529 ft | 261 kts | 185° |
| 2026-04-30 19:42 | 51.66090 | 71.70480 | 9415 ft | 260 kts | 185° |
| 2026-04-30 19:42 | 51.64299 | 71.70284 | 9301 ft | 261 kts | 185° |
| 2026-04-30 19:42 | 51.62488 | 71.70085 | 9187 ft | 260 kts | 184° |
| 2026-04-30 19:43 | 51.60685 | 71.69888 | 9075 ft | 259 kts | 184° |
| 2026-04-30 19:43 | 51.58889 | 71.69692 | 8960 ft | 260 kts | 184° |
| 2026-04-30 19:43 | 51.57103 | 71.69496 | 8846 ft | 258 kts | 184° |
| 2026-04-30 19:44 | 51.53525 | 71.69105 | 8624 ft | 258 kts | 184° |
| 2026-04-30 19:44 | 51.51732 | 71.68909 | 8511 ft | 258 kts | 184° |
| 2026-04-30 19:44 | 51.49954 | 71.68715 | 8396 ft | 256 kts | 184° |
| 2026-04-30 19:44 | 51.48183 | 71.68522 | 8288 ft | 256 kts | 184° |
| 2026-04-30 19:45 | 51.46408 | 71.68329 | 8176 ft | 256 kts | 184° |
| 2026-04-30 19:45 | 51.44637 | 71.68136 | 8065 ft | 255 kts | 184° |
| 2026-04-30 19:45 | 51.42859 | 71.67943 | 7955 ft | 255 kts | 184° |
| 2026-04-30 19:45 | 51.41087 | 71.67750 | 7844 ft | 255 kts | 184° |
| 2026-04-30 19:46 | 51.39317 | 71.67557 | 7734 ft | 254 kts | 184° |
| 2026-04-30 19:46 | 51.37552 | 71.67366 | 7623 ft | 254 kts | 184° |
| 2026-04-30 19:46 | 51.35791 | 71.67175 | 7514 ft | 254 kts | 184° |
| 2026-04-30 19:46 | 51.34032 | 71.66985 | 7403 ft | 253 kts | 184° |
| 2026-04-30 19:47 | 51.32288 | 71.66796 | 7294 ft | 252 kts | 184° |
| 2026-04-30 19:47 | 51.31135 | 71.66672 | 7222 ft | 249 kts | 184° |
| 2026-04-30 19:47 | 51.28883 | 71.66509 | 7071 ft | 238 kts | 174° |
| 2026-04-30 19:47 | 51.27342 | 71.67265 | 6952 ft | 230 kts | 152° |
| 2026-04-30 19:48 | 51.26096 | 71.68829 | 6788 ft | 224 kts | 140° |
| 2026-04-30 19:48 | 51.24978 | 71.70523 | 6588 ft | 218 kts | 139° |
| 2026-04-30 19:48 | 51.23929 | 71.72183 | 6383 ft | 209 kts | 138° |
| 2026-04-30 19:48 | 51.22933 | 71.73763 | 6203 ft | 198 kts | 142° |
| 2026-04-30 19:49 | 51.21738 | 71.74663 | 5932 ft | 188 kts | 175° |
| 2026-04-30 19:49 | 51.19403 | 71.73410 | 5494 ft | 183 kts | 215° |
| 2026-04-30 19:49 | 51.18456 | 71.72060 | 5262 ft | 183 kts | 219° |
| 2026-04-30 19:50 | 51.17542 | 71.70634 | 5029 ft | 183 kts | 220° |
| 2026-04-30 19:50 | 51.16641 | 71.69205 | 4799 ft | 182 kts | 220° |
| 2026-04-30 19:50 | 51.15755 | 71.67801 | 4568 ft | 181 kts | 220° |
| 2026-04-30 19:50 | 51.14856 | 71.66379 | 4337 ft | 180 kts | 220° |
| 2026-04-30 19:51 | 51.13994 | 71.65018 | 4119 ft | 168 kts | 219° |
| 2026-04-30 19:51 | 51.13182 | 71.63743 | 3905 ft | 161 kts | 219° |
| 2026-04-30 19:51 | 51.12409 | 71.62528 | 3697 ft | 148 kts | 218° |
| 2026-04-30 19:51 | 51.11693 | 71.61404 | 3505 ft | 142 kts | 217° |
| 2026-04-30 19:52 | 51.11004 | 71.60323 | 3325 ft | 139 kts | 217° |
| 2026-04-30 19:52 | 51.10320 | 71.59250 | 3143 ft | 138 kts | 217° |
| 2026-04-30 19:52 | 51.09640 | 71.58181 | 2955 ft | 137 kts | 217° |
| 2026-04-30 19:52 | 51.08950 | 71.57101 | 2762 ft | 138 kts | 218° |
| 2026-04-30 19:53 | 51.08269 | 71.56029 | 2575 ft | 139 kts | 219° |
| 2026-04-30 19:53 | 51.07588 | 71.54963 | 2384 ft | 139 kts | 220° |
| 2026-04-30 19:53 | 51.06892 | 71.53872 | 2193 ft | 139 kts | 220° |
| 2026-04-30 19:53 | 51.06208 | 71.52810 | 1973 ft | 140 kts | 221° |
| 2026-04-30 19:54 | 51.05522 | 71.51718 | 1771 ft | 139 kts | 223° |
| 2026-04-30 19:54 | 51.04830 | 71.50645 | 1579 ft | 139 kts | 221° |
| 2026-04-30 19:54 | 51.04134 | 71.49558 | 1405 ft | 139 kts | 222° |
| 2026-04-30 19:54 | 51.03444 | 71.48476 | 1229 ft | 138 kts | 222° |
| 2026-04-30 19:55 | 51.02828 | 71.47517 | 1181 ft | 105 kts | 223° |
| 2026-04-30 19:55 | 51.02422 | 71.46877 | 1181 ft | 61 kts | 225° |
| 2026-04-30 19:55 | 51.02161 | 71.46479 | 1181 ft | 47 kts | 224° |
| 2026-04-30 19:55 | 51.01946 | 71.46136 | 1181 ft | 41 kts | 225° |
| 2026-04-30 19:56 | 51.01808 | 71.45925 | 1181 ft | 23 kts | 224° |
| 2026-04-30 19:56 | 51.01710 | 71.45773 | 1181 ft | 9 kts | 225° |
| 2026-04-30 19:56 | 51.01683 | 71.45699 | 1181 ft | 7 kts | 282° |
| 2026-04-30 19:56 | 51.01714 | 71.45624 | 1181 ft | 7 kts | 313° |
| 2026-04-30 19:57 | 51.01757 | 71.45555 | 1181 ft | 9 kts | 315° |
| 2026-04-30 19:57 | 51.01794 | 71.45501 | 1181 ft | 5 kts | 330° |
| 2026-04-30 19:57 | 51.01834 | 71.45509 | 1181 ft | 7 kts | 33° |
| 2026-04-30 19:57 | 51.01880 | 71.45569 | 1181 ft | 8 kts | 44° |
| 2026-04-30 19:58 | 51.01924 | 71.45637 | 1181 ft | 8 kts | 45° |
| 2026-04-30 19:58 | 51.01968 | 71.45705 | 1181 ft | 9 kts | 45° |
| 2026-04-30 19:58 | 51.02025 | 71.45794 | 1181 ft | 13 kts | 45° |
| 2026-04-30 19:58 | 51.02105 | 71.45919 | 1181 ft | 18 kts | 45° |
| 2026-04-30 19:59 | 51.02205 | 71.46075 | 1181 ft | 21 kts | 45° |
| 2026-04-30 19:59 | 51.02306 | 71.46234 | 1181 ft | 12 kts | 43° |
| 2026-04-30 19:59 | 51.02420 | 71.46133 | 1181 ft | 11 kts | 312° |
| 2026-04-30 20:00 | 51.02483 | 71.46088 | 1181 ft | 10 kts | 356° |
| 2026-04-30 20:00 | 51.02557 | 71.46085 | 1181 ft | 10 kts | 359° |
| 2026-04-30 20:00 | 51.02596 | 71.46084 | 1181 ft | 2 kts | 359° |
| 2026-04-30 20:00 | 51.02606 | 71.46083 | 1181 ft | 0 kts | 359° |